Warning: file_get_contents(/server/czul.ca/includes/../prompts/prompts.aboutus.json): failed to open stream: No such file or directory in /server/czul.ca/includes/prompts.inc.php on line 8

Warning: Invalid argument supplied for foreach() in /server/czul.ca/includes/prompts.inc.php on line 9

Warning: file_get_contents(/server/czul.ca/includes/../prompts/prompts.aboutus.json): failed to open stream: No such file or directory in /server/czul.ca/includes/prompts.inc.php on line 8

Warning: Invalid argument supplied for foreach() in /server/czul.ca/includes/prompts.inc.php on line 9

Warning: file_get_contents(/server/czul.ca/includes/../prompts/prompts.aboutus.json): failed to open stream: No such file or directory in /server/czul.ca/includes/prompts.inc.php on line 8

Warning: Invalid argument supplied for foreach() in /server/czul.ca/includes/prompts.inc.php on line 9
CZUL - FIR virtuelle de Montréal

CYRJ

Roberval Airport

{{ICAO_CODE}} CYRJ
{{IATA_CODE}} YRJ
{{NAME}} Roberval Airport
{{LOCATION}} Roberval, Quebec, CA
{{ELEVATION}} 586 {{FEET}} / 178.6 {{METERS}}
{{LATITUDE}} 48.52000000
{{LONGITUDE}} -72.26583333
{{METAR}} CYRJ 171000Z 12009KT 25SM -RA OVC006 10/10 A2918 RMK NS8 SLP885 DENSITY ALT 1000FT
{{EXTRA_INFO}} {{DISPLAY_NOTAMS}}
{{DISPLAY_CHARTS}}
{{RUNWAY}} {{LENGTH}} {{WIDTH}} {{SURFACE}} {{ELEVATION}}
16 5000 ft 150 ft ASP 586 ft
34 5000 ft 150 ft ASP 560 ft